CheckWX is a tool to help pilots better visualize weather data.  It is not intended as a substitute for an official pre-flight weather briefing.

13:30:18 UTC

06D METAR
Rolla Municipal Airport
Rolla, North Dakota, USA
Current

15 mins ago

K06D 211315Z AUTO 25003KT 10SM OVC007 15/16 A2964 RMK AO2
Observed
Sep-21 @ 13:15 UTC
Wind
  • 250° at 3 KTS
Visibility
10 SM
Flight Rules
IFR
Cloud Levels
  • Overcast at 700' AGL
Temperature
15°C / 59°F
Dewpoint
16°C / 61°F
Humidity
107%
Altimeter
29.64" Hg
Pressure
1003.72 hPa
Previous

35 mins ago

K06D 211255Z AUTO 22008G13KT 10SM -DZ OVC008 15/16 A2964 RMK AO2
Observed
Sep-21 @ 12:55 UTC
Wind
  • 220° at 8 KTS
  • Gusting to 13 KTS
Visibility
10 SM
Flight Rules
IFR
Conditions
Light Drizzle
Cloud Levels
  • Overcast at 800' AGL
Temperature
15°C / 59°F
Dewpoint
16°C / 61°F
Humidity
107%
Altimeter
29.64" Hg
Pressure
1003.72 hPa
Previous

55 mins ago

K06D 211235Z AUTO 23008KT 10SM -RA OVC007 15/16 A2965 RMK AO2
Observed
Sep-21 @ 12:35 UTC
Wind
  • 230° at 8 KTS
Visibility
10 SM
Flight Rules
IFR
Conditions
Light Rain
Cloud Levels
  • Overcast at 700' AGL
Temperature
15°C / 59°F
Dewpoint
16°C / 61°F
Humidity
107%
Altimeter
29.65" Hg
Pressure
1004.02 hPa